createdAt,value
2019-03-28T00:00:19.746Z,95851.16
2019-03-28T00:02:46.442Z,95853.45
2019-03-28T00:05:13.120Z,95855.61
2019-03-28T00:07:39.766Z,95850.12
2019-03-28T00:10:06.418Z,95854.82
2019-03-28T00:12:33.104Z,95854.38
2019-03-28T00:14:59.741Z,95854.10
2019-03-28T00:17:26.397Z,95855.13
2019-03-28T00:19:53.043Z,95857.63
2019-03-28T00:22:19.729Z,95859.75
2019-03-28T00:24:47.211Z,95852.94
2019-03-28T00:27:13.042Z,95852.79
2019-03-28T00:29:39.725Z,95845.91
2019-03-28T00:32:06.408Z,95849.80
2019-03-28T00:34:33.044Z,95853.40
2019-03-28T00:36:59.721Z,95859.36
2019-03-28T00:39:26.357Z,95850.25
2019-03-28T00:41:52.995Z,95847.84
2019-03-28T00:44:19.688Z,95848.22
2019-03-28T00:46:46.367Z,95850.61
2019-03-28T00:49:13.014Z,95849.78
2019-03-28T00:51:39.711Z,95852.70
2019-03-28T00:54:06.350Z,95852.35
2019-03-28T00:56:43.646Z,95848.44
2019-03-28T00:58:59.679Z,95851.32
2019-03-28T01:01:26.324Z,95850.89
2019-03-28T01:03:53.003Z,95847.09
2019-03-28T01:06:19.643Z,95846.92
2019-03-28T01:08:46.295Z,95841.87
2019-03-28T01:11:12.935Z,95844.16
2019-03-28T01:13:39.567Z,95848.91
2019-03-28T01:16:06.243Z,95848.75
2019-03-28T01:18:32.931Z,95845.22
2019-03-28T01:20:59.612Z,95839.91
2019-03-28T01:23:26.313Z,95841.81
2019-03-28T01:25:53.275Z,95843.94
2019-03-28T01:28:19.590Z,95852.75
2019-03-28T01:30:46.271Z,95845.14
2019-03-28T01:33:12.907Z,95845.00
2019-03-28T01:35:39.596Z,95843.00
2019-03-28T01:38:06.288Z,95844.00
2019-03-28T01:40:33.143Z,95851.30
2019-03-28T01:42:59.792Z,95848.53
2019-03-28T01:45:29.485Z,95849.32
2019-03-28T01:47:56.123Z,95852.12
2019-03-28T01:50:22.755Z,95855.63
2019-03-28T01:52:49.408Z,95855.23
2019-03-28T01:55:16.043Z,95859.63
2019-03-28T01:57:42.683Z,95863.16
2019-03-28T02:00:09.364Z,95863.53
2019-03-28T02:02:36.002Z,95857.48
2019-03-28T02:05:02.659Z,95863.09
2019-03-28T02:07:29.342Z,95869.36
2019-03-28T02:09:56.029Z,95861.77
2019-03-28T02:12:22.670Z,95872.06
2019-03-28T02:14:50.627Z,95867.03
2019-03-28T02:17:15.950Z,95868.83
2019-03-28T02:19:42.654Z,95874.89
2019-03-28T02:22:09.292Z,95872.59
2019-03-28T02:24:35.932Z,95870.73
2019-03-28T02:27:02.596Z,95870.73
2019-03-28T02:29:29.251Z,95868.06
2019-03-28T02:31:55.932Z,95868.41
2019-03-28T02:34:22.571Z,95869.77
2019-03-28T02:36:49.204Z,95865.70
2019-03-28T02:39:15.893Z,95869.35
2019-03-28T02:41:42.531Z,95864.59
2019-03-28T02:44:09.217Z,95861.33
2019-03-28T02:46:35.847Z,95863.00
2019-03-28T02:49:02.499Z,95869.94
2019-03-28T02:51:29.705Z,95863.27
2019-03-28T02:53:55.826Z,95869.52
2019-03-28T02:56:22.502Z,95868.64
2019-03-28T02:58:49.141Z,95869.66
2019-03-28T03:01:15.783Z,95872.59
2019-03-28T03:03:42.543Z,95869.05
2019-03-28T03:06:09.057Z,95871.48
2019-03-28T03:08:35.743Z,95872.13
2019-03-28T03:11:02.410Z,95868.59
2019-03-28T03:13:29.017Z,95871.36
2019-03-28T03:15:56.748Z,95870.45
2019-03-28T03:18:22.365Z,95875.63
2019-03-28T03:20:49.003Z,95883.77
2019-03-28T03:23:15.646Z,95883.47
2019-03-28T03:25:42.288Z,95882.55
2019-03-28T03:28:08.968Z,95883.05
2019-03-28T03:30:35.617Z,95888.58
2019-03-28T03:33:02.257Z,95894.06
2019-03-28T03:35:29.003Z,95899.51
2019-03-28T03:37:56.021Z,95902.51
2019-03-28T03:40:22.494Z,95906.03
2019-03-28T03:42:49.294Z,95910.38
2019-03-28T03:45:15.957Z,95913.61
2019-03-28T03:47:42.603Z,95914.84
2019-03-28T03:50:09.292Z,95915.61
2019-03-28T03:52:35.928Z,95913.95
2019-03-28T03:55:02.606Z,95909.92
2019-03-28T03:57:29.247Z,95920.71
2019-03-28T03:59:55.875Z,95922.47
2019-03-28T04:02:22.558Z,95924.28
2019-03-28T04:04:49.208Z,95924.33
2019-03-28T04:07:15.844Z,95919.71
2019-03-28T04:09:42.505Z,95929.93
2019-03-28T04:12:09.141Z,95928.46
2019-03-28T04:14:35.791Z,95935.39
2019-03-28T04:17:02.420Z,95936.44
2019-03-28T04:19:29.071Z,95944.29
2019-03-28T04:21:55.753Z,95941.66
2019-03-28T04:24:22.419Z,95942.02
2019-03-28T04:26:49.068Z,95936.07
2019-03-28T04:29:15.720Z,95938.19
2019-03-28T04:31:42.392Z,95942.87
2019-03-28T04:34:09.677Z,95945.92
2019-03-28T04:36:35.696Z,95949.34
2019-03-28T04:39:02.405Z,95940.92
2019-03-28T04:41:29.035Z,95948.28
2019-03-28T04:43:56.150Z,95957.23
2019-03-28T04:46:22.369Z,95953.87
2019-03-28T04:48:50.752Z,95961.61
2019-03-28T04:51:15.636Z,95970.68
2019-03-28T04:53:42.276Z,95971.18
2019-03-28T04:56:08.925Z,95972.14
2019-03-28T04:58:44.365Z,95974.45
2019-03-28T05:01:02.230Z,95975.59
2019-03-28T05:03:28.879Z,95971.73
2019-03-28T05:05:55.522Z,95972.97
2019-03-28T05:08:22.168Z,95975.76
2019-03-28T05:10:48.799Z,95975.69
2019-03-28T05:13:15.434Z,95975.72
2019-03-28T05:15:42.102Z,95971.59
2019-03-28T05:18:08.747Z,95972.86
2019-03-28T05:20:35.400Z,95962.82
2019-03-28T05:23:02.041Z,95969.48
2019-03-28T05:25:28.747Z,95970.03
2019-03-28T05:27:55.388Z,95964.04
2019-03-28T05:30:22.039Z,95964.80
2019-03-28T05:32:48.691Z,95963.59
2019-03-28T05:35:15.387Z,95965.52
2019-03-28T05:37:42.035Z,95959.50
2019-03-28T05:40:08.665Z,95960.25
2019-03-28T05:42:35.308Z,95961.66
2019-03-28T05:45:01.950Z,95963.77
2019-03-28T05:47:29.430Z,95964.20
2019-03-28T05:49:55.240Z,95965.11
2019-03-28T05:52:21.880Z,95964.13
2019-03-28T05:54:48.523Z,95966.57
2019-03-28T05:57:15.215Z,95970.60
2019-03-28T05:59:41.846Z,95972.05
2019-03-28T06:02:08.485Z,95964.25
2019-03-28T06:04:35.137Z,95972.30
2019-03-28T06:07:01.837Z,95973.45
2019-03-28T06:09:28.484Z,95971.60
2019-03-28T06:11:55.165Z,95974.08
2019-03-28T06:14:21.807Z,95970.63
2019-03-28T06:16:48.468Z,95967.38
2019-03-28T06:19:15.114Z,95972.87
2019-03-28T06:21:41.760Z,95967.70
2019-03-28T06:24:08.411Z,95962.53
2019-03-28T06:26:35.068Z,95961.96
2019-03-28T06:29:01.713Z,95976.54
2019-03-28T06:31:28.402Z,95979.22
2019-03-28T06:33:55.051Z,95987.45
2019-03-28T06:36:21.719Z,95989.33
2019-03-28T06:38:48.400Z,95987.17
2019-03-28T06:41:15.048Z,95987.62
2019-03-28T06:43:42.129Z,95996.06
2019-03-28T06:46:08.379Z,95995.11
2019-03-28T06:48:35.020Z,96001.05
2019-03-28T06:51:01.708Z,96003.11
2019-03-28T06:53:28.368Z,95993.45
2019-03-28T06:55:55.054Z,95999.95
2019-03-28T06:58:21.708Z,95995.58
2019-03-28T07:00:48.352Z,95989.77
2019-03-28T07:03:15.077Z,95998.91
2019-03-28T07:05:41.716Z,96007.02
2019-03-28T07:08:08.359Z,96003.84
2019-03-28T07:10:35.015Z,96001.48
2019-03-28T07:13:01.717Z,96005.91
2019-03-28T07:15:28.354Z,96008.68
2019-03-28T07:17:55.028Z,96008.28
2019-03-28T07:20:21.675Z,96010.69
2019-03-28T07:22:48.312Z,96020.30
2019-03-28T07:25:14.990Z,96010.55
2019-03-28T07:27:41.671Z,96016.38
2019-03-28T07:30:08.327Z,96018.53
2019-03-28T07:32:35.011Z,96005.73
2019-03-28T07:35:01.648Z,96014.84
2019-03-28T07:37:28.377Z,96011.28
2019-03-28T07:39:54.971Z,96014.70
2019-03-28T07:42:21.673Z,96009.16
2019-03-28T07:44:48.342Z,96010.80
2019-03-28T07:47:15.082Z,96014.19
2019-03-28T07:49:41.740Z,96012.80
2019-03-28T07:52:08.393Z,96002.77
2019-03-28T07:54:35.069Z,96004.79
2019-03-28T07:57:01.722Z,96000.41
2019-03-28T07:59:28.424Z,96011.08
2019-03-28T08:01:55.072Z,96004.86
2019-03-28T08:04:21.840Z,96013.08
2019-03-28T08:06:50.051Z,96010.81
2019-03-28T08:09:17.562Z,96025.88
2019-03-28T08:11:41.901Z,96019.77
2019-03-28T08:14:08.548Z,96021.16
2019-03-28T08:16:35.241Z,96018.86
2019-03-28T08:19:01.887Z,96013.90
2019-03-28T08:21:28.562Z,96019.77
2019-03-28T08:23:55.248Z,96017.49
2019-03-28T08:26:21.885Z,96011.05
2019-03-28T08:28:48.549Z,96011.15
2019-03-28T08:31:15.240Z,96010.29
2019-03-28T08:33:41.895Z,96011.19
2019-03-28T08:36:08.581Z,96006.41
2019-03-28T08:38:35.225Z,96018.17
2019-03-28T08:41:01.914Z,96010.69
2019-03-28T08:43:28.553Z,96007.83
2019-03-28T08:45:55.214Z,96002.72
2019-03-28T08:48:21.922Z,96006.89
2019-03-28T08:50:48.626Z,96006.58
2019-03-28T08:53:15.310Z,96006.41
2019-03-28T08:55:42.000Z,96004.89
2019-03-28T08:58:08.651Z,95997.30
2019-03-28T09:00:50.925Z,96004.63
2019-03-28T09:03:02.010Z,96002.52
2019-03-28T09:05:28.643Z,96005.91
2019-03-28T09:07:55.456Z,95999.95
2019-03-28T09:10:22.287Z,96000.52
2019-03-28T09:12:48.945Z,96004.22
2019-03-28T09:15:15.658Z,96001.77
2019-03-28T09:17:42.785Z,96003.84
2019-03-28T09:20:09.436Z,96006.16
2019-03-28T09:22:38.814Z,96004.02
2019-03-28T09:25:02.945Z,95999.72
2019-03-28T09:27:29.618Z,95998.16
2019-03-28T09:29:56.247Z,95994.89
2019-03-28T09:32:22.965Z,95999.84
2019-03-28T09:34:50.729Z,95995.02
2019-03-28T09:37:17.603Z,95995.87
2019-03-28T09:39:44.258Z,95991.41
2019-03-28T09:42:10.929Z,95988.70
2019-03-28T09:44:37.585Z,95994.02
2019-03-28T09:47:04.256Z,95982.31
2019-03-28T09:49:30.995Z,95985.90
2019-03-28T09:51:57.628Z,95992.55
2019-03-28T09:54:24.270Z,95990.19
2019-03-28T09:56:50.956Z,95983.61
2019-03-28T09:59:17.664Z,95981.19
2019-03-28T10:01:44.304Z,95988.77
2019-03-28T10:04:10.999Z,95983.61
2019-03-28T10:06:37.658Z,95993.34
2019-03-28T10:09:04.357Z,95985.87
2019-03-28T10:11:32.291Z,95980.18
2019-03-28T10:13:57.670Z,95984.84
2019-03-28T10:16:24.364Z,95971.84
2019-03-28T10:18:51.016Z,95977.70
2019-03-28T10:21:17.706Z,95976.48
2019-03-28T10:23:44.607Z,95969.52
2019-03-28T10:26:11.086Z,95967.22
2019-03-28T10:28:37.762Z,95966.88
2019-03-28T10:31:15.908Z,95965.17
2019-03-28T10:33:31.059Z,95949.32
2019-03-28T10:35:57.723Z,95950.62
2019-03-28T10:38:24.434Z,95945.00
2019-03-28T10:40:51.091Z,95946.27
2019-03-28T10:43:17.896Z,95951.52
2019-03-28T10:45:44.631Z,95949.88
2019-03-28T10:48:11.268Z,95942.11
2019-03-28T10:50:42.474Z,95934.80
2019-03-28T10:53:06.670Z,95933.40
2019-03-28T10:55:33.352Z,95934.89
2019-03-28T10:58:00.030Z,95926.13
2019-03-28T11:00:26.661Z,95925.84
2019-03-28T11:02:53.457Z,95923.81
2019-03-28T11:05:19.993Z,95917.66
2019-03-28T11:07:46.666Z,95918.31
2019-03-28T11:10:13.359Z,95919.48
2019-03-28T11:12:40.211Z,95920.62
2019-03-28T11:15:06.952Z,95922.52
2019-03-28T11:17:33.585Z,95912.64
2019-03-28T11:20:00.498Z,95910.60
2019-03-28T11:22:27.073Z,95908.27
2019-03-28T11:24:53.778Z,95903.50
2019-03-28T11:27:20.427Z,95897.08
2019-03-28T11:29:47.128Z,95896.53
2019-03-28T11:32:13.820Z,95890.67
2019-03-28T11:34:40.883Z,95886.45
2019-03-28T11:37:11.353Z,95892.26
2019-03-28T11:39:33.870Z,95890.19
2019-03-28T11:42:00.598Z,95885.28
2019-03-28T11:44:27.158Z,95879.05
2019-03-28T11:46:53.953Z,95880.34
2019-03-28T11:49:20.703Z,95864.05
2019-03-28T11:51:47.357Z,95862.00
2019-03-28T11:54:14.047Z,95870.55
2019-03-28T11:56:40.734Z,95862.72
2019-03-28T11:59:07.386Z,95863.24
2019-03-28T12:01:34.055Z,95853.69
2019-03-28T12:04:00.725Z,95848.42
2019-03-28T12:06:27.394Z,95854.62
2019-03-28T12:08:55.919Z,95852.53
2019-03-28T12:11:20.809Z,95859.20
2019-03-28T12:13:47.450Z,95857.84
2019-03-28T12:16:14.096Z,95853.34
2019-03-28T12:18:40.813Z,95851.38
2019-03-28T12:21:07.440Z,95849.47
2019-03-28T12:23:34.081Z,95848.23
2019-03-28T12:26:00.745Z,95845.63
2019-03-28T12:28:27.404Z,95846.30
2019-03-28T12:30:54.043Z,95839.20
2019-03-28T12:33:22.336Z,95839.21
2019-03-28T12:35:48.994Z,95829.44
2019-03-28T12:38:15.646Z,95819.41
2019-03-28T12:40:42.303Z,95817.16
2019-03-28T12:43:09.098Z,95822.20
2019-03-28T12:45:35.638Z,95812.09
2019-03-28T12:48:02.469Z,95816.80
2019-03-28T12:50:29.120Z,95810.28
2019-03-28T12:52:58.187Z,95806.19
2019-03-28T12:55:22.416Z,95799.33
2019-03-28T12:57:49.072Z,95800.81
2019-03-28T13:00:15.770Z,95793.87
2019-03-28T13:02:42.450Z,95796.97
2019-03-28T13:05:09.096Z,95800.27
2019-03-28T13:07:35.740Z,95795.36
2019-03-28T13:10:02.433Z,95789.78
2019-03-28T13:12:29.075Z,95788.67
2019-03-28T13:14:55.751Z,95787.44
2019-03-28T13:17:22.407Z,95783.73
2019-03-28T13:19:49.217Z,95785.16
2019-03-28T13:22:15.891Z,95783.64
2019-03-28T13:24:42.541Z,95787.66
2019-03-28T13:27:09.197Z,95787.75
2019-03-28T13:29:35.874Z,95781.87
2019-03-28T13:32:02.518Z,95778.61
2019-03-28T13:34:29.162Z,95779.20
2019-03-28T13:36:55.845Z,95783.30
2019-03-28T13:39:22.497Z,95774.09
2019-03-28T13:41:49.223Z,95768.16
2019-03-28T13:44:15.870Z,95770.02
2019-03-28T13:46:42.548Z,95763.16
2019-03-28T13:49:09.330Z,95772.59
2019-03-28T13:51:36.083Z,95775.82
2019-03-28T13:54:02.719Z,95779.66
2019-03-28T13:56:29.437Z,95773.70
2019-03-28T13:58:56.109Z,95768.55
2019-03-28T14:01:22.826Z,95770.61
2019-03-28T14:03:49.420Z,95755.48
2019-03-28T14:06:16.161Z,95767.66
2019-03-28T14:08:42.808Z,95767.31
2019-03-28T14:11:09.467Z,95756.70
2019-03-28T14:13:36.203Z,95761.58
2019-03-28T14:16:02.837Z,95762.06
2019-03-28T14:18:29.509Z,95762.06
2019-03-28T14:20:56.217Z,95750.92
2019-03-28T14:23:22.880Z,95760.17
2019-03-28T14:25:49.524Z,95763.00
2019-03-28T14:28:19.406Z,95761.27
2019-03-28T14:30:46.073Z,95765.17
2019-03-28T14:33:15.754Z,95759.97
2019-03-28T14:35:39.834Z,95759.79
2019-03-28T14:38:06.470Z,95762.62
2019-03-28T14:40:33.272Z,95758.30
2019-03-28T14:42:59.883Z,95753.71
2019-03-28T14:45:26.536Z,95760.28
2019-03-28T14:47:53.218Z,95753.95
2019-03-28T14:50:19.966Z,95750.05
2019-03-28T14:52:46.570Z,95754.05
2019-03-28T14:55:13.280Z,95756.37
2019-03-28T14:57:39.974Z,95749.22
2019-03-28T15:00:06.639Z,95756.86
2019-03-28T15:02:33.328Z,95747.86
2019-03-28T15:05:00.000Z,95751.82
2019-03-28T15:07:26.647Z,95751.09
2019-03-28T15:09:53.381Z,95750.66
2019-03-28T15:12:20.025Z,95750.97
2019-03-28T15:14:46.733Z,95755.24
2019-03-28T15:17:13.404Z,95761.33
2019-03-28T15:19:40.058Z,95760.25
2019-03-28T15:22:06.712Z,95751.66
2019-03-28T15:24:33.418Z,95758.16
2019-03-28T15:27:00.183Z,95753.78
2019-03-28T15:29:26.844Z,95760.44
2019-03-28T15:31:53.525Z,95745.27
2019-03-28T15:34:20.208Z,95754.14
2019-03-28T15:36:47.370Z,95756.00
2019-03-28T15:39:16.869Z,95761.61
2019-03-28T15:41:43.618Z,95761.58
2019-03-28T15:44:10.256Z,95762.78
2019-03-28T15:46:36.935Z,95770.58
2019-03-28T15:49:03.583Z,95764.21
2019-03-28T15:51:30.231Z,95774.16
2019-03-28T15:53:56.917Z,95775.05
2019-03-28T15:56:23.562Z,95779.17
2019-03-28T15:58:50.256Z,95782.69
2019-03-28T16:01:16.908Z,95777.99
2019-03-28T16:03:52.790Z,95779.52
2019-03-28T16:06:10.262Z,95786.33
2019-03-28T16:08:36.900Z,95786.89
2019-03-28T16:11:03.553Z,95789.91
2019-03-28T16:13:30.517Z,95783.66
2019-03-28T16:15:57.158Z,95787.63
2019-03-28T16:18:23.795Z,95784.55
2019-03-28T16:20:53.342Z,95790.60
2019-03-28T16:23:17.121Z,95791.45
2019-03-28T16:25:43.769Z,95789.08
2019-03-28T16:28:10.433Z,95781.77
2019-03-28T16:30:37.090Z,95790.31
2019-03-28T16:33:03.742Z,95791.81
2019-03-28T16:35:30.425Z,95794.16
2019-03-28T16:37:57.059Z,95792.56
2019-03-28T16:40:23.696Z,95794.16
2019-03-28T16:42:50.345Z,95788.63
2019-03-28T16:45:16.989Z,95793.73
2019-03-28T16:47:43.648Z,95798.06
2019-03-28T16:50:10.286Z,95799.23
2019-03-28T16:52:37.027Z,95797.22
2019-03-28T16:55:03.663Z,95800.55
2019-03-28T16:57:30.804Z,95804.09
2019-03-28T16:59:57.445Z,95796.36
2019-03-28T17:02:24.152Z,95804.77
2019-03-28T17:04:50.805Z,95805.51
2019-03-28T17:07:17.487Z,95805.53
2019-03-28T17:09:44.129Z,95813.64
2019-03-28T17:12:10.845Z,95808.34
2019-03-28T17:14:37.494Z,95811.89
2019-03-28T17:17:04.185Z,95814.02
2019-03-28T17:19:30.828Z,95821.83
2019-03-28T17:21:57.521Z,95815.39
2019-03-28T17:24:24.156Z,95825.27
2019-03-28T17:26:50.794Z,95825.14
2019-03-28T17:29:17.485Z,95830.11
2019-03-28T17:31:44.969Z,95830.00
2019-03-28T17:34:10.773Z,95833.92
2019-03-28T17:36:37.410Z,95838.98
2019-03-28T17:39:04.069Z,95838.77
2019-03-28T17:41:31.774Z,95835.44
2019-03-28T17:43:57.428Z,95842.58
2019-03-28T17:46:24.068Z,95842.25
2019-03-28T17:48:50.715Z,95843.97
2019-03-28T17:51:17.443Z,95846.66
2019-03-28T17:53:44.162Z,95854.02
2019-03-28T17:56:10.846Z,95846.77
2019-03-28T17:58:37.502Z,95855.52
2019-03-28T18:01:04.147Z,95853.26
2019-03-28T18:03:31.760Z,95852.63
2019-03-28T18:05:58.719Z,95857.30
2019-03-28T18:08:24.098Z,95857.80
2019-03-28T18:10:50.754Z,95864.16
2019-03-28T18:13:17.409Z,95868.22
2019-03-28T18:15:44.045Z,95870.99
2019-03-28T18:18:12.026Z,95876.31
2019-03-28T18:20:37.446Z,95874.31
2019-03-28T18:23:04.093Z,95879.37
2019-03-28T18:25:30.738Z,95879.14
2019-03-28T18:27:57.431Z,95874.95
2019-03-28T18:30:24.082Z,95873.44
2019-03-28T18:32:50.772Z,95874.59
2019-03-28T18:35:17.435Z,95877.63
2019-03-28T18:37:44.763Z,95876.63
2019-03-28T18:40:10.750Z,95876.11
2019-03-28T18:42:37.392Z,95877.47
2019-03-28T18:45:04.034Z,95876.61
2019-03-28T18:47:30.673Z,95876.13
2019-03-28T18:49:57.376Z,95881.05
2019-03-28T18:52:24.024Z,95886.11
2019-03-28T18:54:50.683Z,95889.91
2019-03-28T18:57:19.748Z,95890.66
2019-03-28T18:59:43.995Z,95887.13
2019-03-28T19:02:10.649Z,95890.53
2019-03-28T19:04:37.336Z,95895.47
2019-03-28T19:07:03.973Z,95899.28
2019-03-28T19:09:30.606Z,95897.88
2019-03-28T19:11:57.282Z,95908.52
2019-03-28T19:14:23.913Z,95905.87
2019-03-28T19:16:52.221Z,95912.19
2019-03-28T19:19:17.793Z,95906.48
2019-03-28T19:21:43.855Z,95905.85
2019-03-28T19:24:10.508Z,95907.64
2019-03-28T19:26:37.145Z,95910.88
2019-03-28T19:29:03.804Z,95905.48
2019-03-28T19:31:30.653Z,95902.33
2019-03-28T19:33:57.096Z,95902.45
2019-03-28T19:36:23.746Z,95906.15
2019-03-28T19:38:50.397Z,95907.67
2019-03-28T19:41:17.052Z,95907.05
2019-03-28T19:43:43.701Z,95910.06
2019-03-28T19:46:10.354Z,95907.79
2019-03-28T19:48:37.014Z,95908.41
2019-03-28T19:51:03.655Z,95920.92
2019-03-28T19:53:30.305Z,95915.63
2019-03-28T19:55:56.952Z,95915.48
2019-03-28T19:58:23.588Z,95920.92
2019-03-28T20:00:50.237Z,95917.76
2019-03-28T20:03:16.892Z,95923.57
2019-03-28T20:05:48.009Z,95924.61
2019-03-28T20:08:16.052Z,95925.98
2019-03-28T20:10:36.856Z,95923.33
2019-03-28T20:13:05.201Z,95922.97
2019-03-28T20:15:30.140Z,95921.45
2019-03-28T20:17:56.788Z,95919.92
2019-03-28T20:20:23.448Z,95920.80
2019-03-28T20:22:50.169Z,95910.95
2019-03-28T20:25:16.820Z,95902.98
2019-03-28T20:27:43.467Z,95913.11
2019-03-28T20:30:10.103Z,95912.45
2019-03-28T20:32:37.848Z,95915.13
2019-03-28T20:35:03.491Z,95915.02
2019-03-28T20:37:30.129Z,95912.59
2019-03-28T20:39:56.779Z,95916.27
2019-03-28T20:42:23.426Z,95916.54
2019-03-28T20:44:50.090Z,95902.61
2019-03-28T20:47:16.727Z,95907.30
2019-03-28T20:49:46.466Z,95907.55
2019-03-28T20:52:10.079Z,95913.75
2019-03-28T20:54:36.661Z,95915.77
2019-03-28T20:57:03.301Z,95912.75
2019-03-28T20:59:29.941Z,95911.34
2019-03-28T21:01:57.704Z,95924.66
2019-03-28T21:04:31.145Z,95926.02
2019-03-28T21:06:49.952Z,95935.27
2019-03-28T21:09:16.623Z,95928.94
2019-03-28T21:11:43.257Z,95927.42
2019-03-28T21:14:09.909Z,95935.53
2019-03-28T21:16:38.072Z,95929.98
2019-03-28T21:19:03.198Z,95929.08
2019-03-28T21:21:29.961Z,95938.96
2019-03-28T21:23:56.608Z,95938.55
2019-03-28T21:26:23.246Z,95948.20
2019-03-28T21:28:50.778Z,95942.00
2019-03-28T21:31:16.583Z,95944.53
2019-03-28T21:33:43.228Z,95945.54
2019-03-28T21:36:09.866Z,95943.25
2019-03-28T21:38:36.530Z,95947.56
2019-03-28T21:41:03.168Z,95947.95
2019-03-28T21:43:30.828Z,95947.42
2019-03-28T21:45:56.457Z,95945.41
2019-03-28T21:48:23.096Z,95943.89
2019-03-28T21:50:49.743Z,95939.22
2019-03-28T21:53:16.389Z,95943.64
2019-03-28T21:55:54.281Z,95943.66
2019-03-28T21:58:09.712Z,95942.52
2019-03-28T22:00:36.404Z,95942.77
2019-03-28T22:03:03.043Z,95952.88
2019-03-28T22:05:30.777Z,95945.30
2019-03-28T22:07:56.322Z,95943.55
2019-03-28T22:10:22.971Z,95950.75
2019-03-28T22:12:49.609Z,95942.78
2019-03-28T22:15:16.241Z,95951.38
2019-03-28T22:17:42.892Z,95950.61
2019-03-28T22:20:09.536Z,95953.03
2019-03-28T22:22:36.175Z,95958.48
2019-03-28T22:25:02.819Z,95962.02
2019-03-28T22:27:29.457Z,95967.83
2019-03-28T22:29:56.096Z,95968.84
2019-03-28T22:32:23.151Z,95968.22
2019-03-28T22:34:49.364Z,95971.86
2019-03-28T22:37:15.999Z,95973.03
2019-03-28T22:39:42.639Z,95968.47
2019-03-28T22:42:09.287Z,95971.36
2019-03-28T22:44:35.981Z,95976.91
2019-03-28T22:47:02.590Z,95970.42
2019-03-28T22:49:29.235Z,95975.70
2019-03-28T22:51:55.889Z,95967.47
2019-03-28T22:54:22.526Z,95970.80
2019-03-28T22:56:49.926Z,95970.30
2019-03-28T22:59:15.833Z,95975.88
2019-03-28T23:01:42.496Z,95975.91
2019-03-28T23:04:09.157Z,95980.70
2019-03-28T23:06:35.801Z,95974.88
2019-03-28T23:09:02.487Z,95980.84
2019-03-28T23:11:29.087Z,95975.14
2019-03-28T23:13:55.765Z,95975.17
2019-03-28T23:16:22.401Z,95983.52
2019-03-28T23:18:49.039Z,95983.65
2019-03-28T23:21:15.938Z,95983.38
2019-03-28T23:23:42.370Z,95981.24
2019-03-28T23:26:09.047Z,95980.34
2019-03-28T23:28:35.704Z,95979.97
2019-03-28T23:31:02.349Z,95984.41
2019-03-28T23:33:28.993Z,95978.08
2019-03-28T23:35:55.638Z,95982.75
2019-03-28T23:38:22.273Z,95988.69
2019-03-28T23:40:48.919Z,95982.25
2019-03-28T23:43:15.564Z,95978.08
2019-03-28T23:45:42.198Z,95981.10
2019-03-28T23:48:08.844Z,95983.13
2019-03-28T23:50:35.493Z,95983.14
2019-03-28T23:53:02.130Z,95993.63
2019-03-28T23:55:28.811Z,95996.30
2019-03-28T23:57:55.456Z,95996.16
